FOOG

Port Gentil Airport

Port Gentil, Gabon
METAR FOOG 181900Z 17004KT 9999 FEW010 26/24 Q1011
Observed Flight Rules
Jan-18 @ 19:00 UTC (an hour ago) Visual Flight Rules
Wind Visibility Clouds
170° at 4 knots 10,000+ meters
  • Few at 1,000' AGL
Temperatures Readings
Current 26°C / 79°F
Dewpoint 24°C / 75°F
Humidity 89%
Altimeter 29.85" Hg
Pressure 1010.92 hPa
Elevation 4
METAR FOOG 181900Z 17004KT 9999 FEW010 26/24 Q1011
Observed Flight Rules
Jan-18 @ 19:00 UTC
(an hour ago)
VFR
Wind Visibility
170° at 4 knots 10,000+ meters
Clouds
  • Few at 1,000' AGL
Temperature Dewpoint
26°C / 79°F 24°C / 75°F
Humidity Altimeter Pressure
89% 29.85" Hg 1010.92 hPa